sensor_id;sensor_type;location;lat;lon;timestamp;temperature;humidity
23347;DHT22;36852;45.466;11.066;2023-04-24T00:01:51;20.10;98.00
23347;DHT22;36852;45.466;11.066;2023-04-24T00:04:20;20.00;98.00
23347;DHT22;36852;45.466;11.066;2023-04-24T00:06:48;20.00;98.40
23347;DHT22;36852;45.466;11.066;2023-04-24T00:09:17;20.00;98.60
23347;DHT22;36852;45.466;11.066;2023-04-24T00:11:45;19.90;98.60
23347;DHT22;36852;45.466;11.066;2023-04-24T00:14:13;19.90;98.50
23347;DHT22;36852;45.466;11.066;2023-04-24T00:16:40;19.90;98.00
23347;DHT22;36852;45.466;11.066;2023-04-24T00:19:08;19.90;98.20
23347;DHT22;36852;45.466;11.066;2023-04-24T00:21:36;19.90;98.90
23347;DHT22;36852;45.466;11.066;2023-04-24T00:24:04;19.90;99.10
23347;DHT22;36852;45.466;11.066;2023-04-24T00:26:32;19.90;99.90
23347;DHT22;36852;45.466;11.066;2023-04-24T00:29:00;19.90;99.90
23347;DHT22;36852;45.466;11.066;2023-04-24T00:31:28;19.90;99.90
23347;DHT22;36852;45.466;11.066;2023-04-24T00:33:55;19.90;99.90
23347;DHT22;36852;45.466;11.066;2023-04-24T00:36:23;19.90;99.90
23347;DHT22;36852;45.466;11.066;2023-04-24T00:38:51;19.90;99.90
23347;DHT22;36852;45.466;11.066;2023-04-24T00:41:18;19.90;99.90
23347;DHT22;36852;45.466;11.066;2023-04-24T00:43:46;19.80;99.90
23347;DHT22;36852;45.466;11.066;2023-04-24T00:46:14;19.80;99.90
23347;DHT22;36852;45.466;11.066;2023-04-24T00:48:43;19.80;99.90
23347;DHT22;36852;45.466;11.066;2023-04-24T00:51:11;19.80;99.90
23347;DHT22;36852;45.466;11.066;2023-04-24T00:53:38;19.80;99.90
23347;DHT22;36852;45.466;11.066;2023-04-24T00:56:06;19.80;99.90
23347;DHT22;36852;45.466;11.066;2023-04-24T00:58:34;19.80;99.90
23347;DHT22;36852;45.466;11.066;2023-04-24T01:01:02;19.70;99.90
23347;DHT22;36852;45.466;11.066;2023-04-24T01:03:32;19.80;99.90
23347;DHT22;36852;45.466;11.066;2023-04-24T01:06:03;19.70;99.90
23347;DHT22;36852;45.466;11.066;2023-04-24T01:08:32;19.70;99.90
23347;DHT22;36852;45.466;11.066;2023-04-24T01:11:03;19.70;99.90
23347;DHT22;36852;45.466;11.066;2023-04-24T01:13:31;19.70;99.90
23347;DHT22;36852;45.466;11.066;2023-04-24T01:16:00;19.70;99.90
23347;DHT22;36852;45.466;11.066;2023-04-24T01:18:28;19.70;99.90
23347;DHT22;36852;45.466;11.066;2023-04-24T01:20:59;19.70;99.90
23347;DHT22;36852;45.466;11.066;2023-04-24T01:23:30;19.70;99.90
23347;DHT22;36852;45.466;11.066;2023-04-24T01:25:58;19.70;99.90
23347;DHT22;36852;45.466;11.066;2023-04-24T01:28:26;19.70;99.90
23347;DHT22;36852;45.466;11.066;2023-04-24T01:30:54;19.70;99.90
23347;DHT22;36852;45.466;11.066;2023-04-24T01:33:22;19.70;99.90
23347;DHT22;36852;45.466;11.066;2023-04-24T01:35:50;19.70;99.90
23347;DHT22;36852;45.466;11.066;2023-04-24T01:38:19;19.60;99.90
23347;DHT22;36852;45.466;11.066;2023-04-24T01:40:47;19.70;99.90
23347;DHT22;36852;45.466;11.066;2023-04-24T01:43:15;19.60;99.90
23347;DHT22;36852;45.466;11.066;2023-04-24T01:45:42;19.60;99.90
23347;DHT22;36852;45.466;11.066;2023-04-24T01:48:12;19.60;99.90
23347;DHT22;36852;45.466;11.066;2023-04-24T01:50:40;19.60;99.90
23347;DHT22;36852;45.466;11.066;2023-04-24T01:53:10;19.60;99.90
23347;DHT22;36852;45.466;11.066;2023-04-24T01:55:38;19.50;99.90
23347;DHT22;36852;45.466;11.066;2023-04-24T01:58:06;19.50;99.90
23347;DHT22;36852;45.466;11.066;2023-04-24T02:00:34;19.40;99.90
23347;DHT22;36852;45.466;11.066;2023-04-24T02:03:01;19.40;99.90
23347;DHT22;36852;45.466;11.066;2023-04-24T02:05:29;19.40;99.90
23347;DHT22;36852;45.466;11.066;2023-04-24T02:07:57;19.40;99.90
23347;DHT22;36852;45.466;11.066;2023-04-24T02:10:24;19.40;99.90
23347;DHT22;36852;45.466;11.066;2023-04-24T02:12:52;19.30;99.90
23347;DHT22;36852;45.466;11.066;2023-04-24T02:15:23;19.30;99.90
23347;DHT22;36852;45.466;11.066;2023-04-24T02:17:51;19.30;99.90
23347;DHT22;36852;45.466;11.066;2023-04-24T02:20:18;19.20;99.90
23347;DHT22;36852;45.466;11.066;2023-04-24T02:22:49;19.10;99.90
23347;DHT22;36852;45.466;11.066;2023-04-24T02:25:17;19.10;99.90
23347;DHT22;36852;45.466;11.066;2023-04-24T02:27:45;19.10;99.90
23347;DHT22;36852;45.466;11.066;2023-04-24T02:30:13;19.10;99.90
23347;DHT22;36852;45.466;11.066;2023-04-24T02:32:41;19.10;99.90
23347;DHT22;36852;45.466;11.066;2023-04-24T02:35:10;19.00;99.90
23347;DHT22;36852;45.466;11.066;2023-04-24T02:37:39;19.00;99.90
23347;DHT22;36852;45.466;11.066;2023-04-24T02:40:08;19.00;99.90
23347;DHT22;36852;45.466;11.066;2023-04-24T02:42:36;18.90;99.90
23347;DHT22;36852;45.466;11.066;2023-04-24T02:45:04;18.90;99.90
23347;DHT22;36852;45.466;11.066;2023-04-24T02:47:32;18.80;99.90
23347;DHT22;36852;45.466;11.066;2023-04-24T02:50:01;18.80;99.90
23347;DHT22;36852;45.466;11.066;2023-04-24T02:52:40;18.70;99.90
23347;DHT22;36852;45.466;11.066;2023-04-24T02:55:07;18.80;99.90
23347;DHT22;36852;45.466;11.066;2023-04-24T02:57:35;18.70;99.90
23347;DHT22;36852;45.466;11.066;2023-04-24T03:00:03;18.70;99.90
23347;DHT22;36852;45.466;11.066;2023-04-24T03:02:33;18.70;99.90
23347;DHT22;36852;45.466;11.066;2023-04-24T03:05:01;18.70;99.90
23347;DHT22;36852;45.466;11.066;2023-04-24T03:07:29;18.60;99.90
23347;DHT22;36852;45.466;11.066;2023-04-24T03:09:58;18.60;99.90
23347;DHT22;36852;45.466;11.066;2023-04-24T03:12:26;18.60;99.90
23347;DHT22;36852;45.466;11.066;2023-04-24T03:14:54;18.50;99.90
23347;DHT22;36852;45.466;11.066;2023-04-24T03:17:22;18.50;99.90
23347;DHT22;36852;45.466;11.066;2023-04-24T03:19:50;18.50;99.90
23347;DHT22;36852;45.466;11.066;2023-04-24T03:22:18;18.40;99.90
23347;DHT22;36852;45.466;11.066;2023-04-24T03:24:45;18.50;99.90
23347;DHT22;36852;45.466;11.066;2023-04-24T03:27:15;18.30;99.90
23347;DHT22;36852;45.466;11.066;2023-04-24T03:29:45;18.20;99.90
23347;DHT22;36852;45.466;11.066;2023-04-24T03:32:13;18.00;99.90
23347;DHT22;36852;45.466;11.066;2023-04-24T03:34:41;18.00;99.90
23347;DHT22;36852;45.466;11.066;2023-04-24T03:37:10;18.00;99.90
23347;DHT22;36852;45.466;11.066;2023-04-24T03:39:39;18.00;99.90
23347;DHT22;36852;45.466;11.066;2023-04-24T03:42:07;18.10;99.90
23347;DHT22;36852;45.466;11.066;2023-04-24T03:44:37;18.10;99.90
23347;DHT22;36852;45.466;11.066;2023-04-24T03:47:04;18.10;99.90
23347;DHT22;36852;45.466;11.066;2023-04-24T03:49:33;18.10;99.90
23347;DHT22;36852;45.466;11.066;2023-04-24T03:52:00;18.10;99.90
23347;DHT22;36852;45.466;11.066;2023-04-24T03:54:29;18.10;99.90
23347;DHT22;36852;45.466;11.066;2023-04-24T03:56:57;18.00;99.90
23347;DHT22;36852;45.466;11.066;2023-04-24T03:59:25;18.10;99.90
23347;DHT22;36852;45.466;11.066;2023-04-24T04:01:55;18.00;99.90
23347;DHT22;36852;45.466;11.066;2023-04-24T04:04:23;18.00;99.90
23347;DHT22;36852;45.466;11.066;2023-04-24T04:06:51;18.10;99.90
23347;DHT22;36852;45.466;11.066;2023-04-24T04:09:19;18.00;99.90
23347;DHT22;36852;45.466;11.066;2023-04-24T04:11:47;18.00;99.90
23347;DHT22;36852;45.466;11.066;2023-04-24T04:14:15;18.00;99.90
23347;DHT22;36852;45.466;11.066;2023-04-24T04:16:44;18.10;99.90
23347;DHT22;36852;45.466;11.066;2023-04-24T04:19:13;18.00;99.90
23347;DHT22;36852;45.466;11.066;2023-04-24T04:21:41;17.90;99.90
23347;DHT22;36852;45.466;11.066;2023-04-24T04:24:11;17.70;99.90
23347;DHT22;36852;45.466;11.066;2023-04-24T04:26:40;17.60;99.90
23347;DHT22;36852;45.466;11.066;2023-04-24T04:29:13;17.60;99.90
23347;DHT22;36852;45.466;11.066;2023-04-24T04:31:42;17.50;99.90
23347;DHT22;36852;45.466;11.066;2023-04-24T04:34:12;17.40;99.90
23347;DHT22;36852;45.466;11.066;2023-04-24T04:36:41;17.10;99.90
23347;DHT22;36852;45.466;11.066;2023-04-24T04:39:22;16.80;99.90
23347;DHT22;36852;45.466;11.066;2023-04-24T04:41:52;16.50;99.90
23347;DHT22;36852;45.466;11.066;2023-04-24T04:44:25;16.30;99.90
23347;DHT22;36852;45.466;11.066;2023-04-24T04:46:54;16.10;99.90
23347;DHT22;36852;45.466;11.066;2023-04-24T04:49:28;16.10;99.90
23347;DHT22;36852;45.466;11.066;2023-04-24T04:51:56;16.20;99.90
23347;DHT22;36852;45.466;11.066;2023-04-24T04:54:25;16.40;99.90
23347;DHT22;36852;45.466;11.066;2023-04-24T04:56:53;16.60;99.90
23347;DHT22;36852;45.466;11.066;2023-04-24T04:59:21;16.80;99.90
23347;DHT22;36852;45.466;11.066;2023-04-24T05:01:50;16.90;99.90
23347;DHT22;36852;45.466;11.066;2023-04-24T05:04:18;17.00;99.90
23347;DHT22;36852;45.466;11.066;2023-04-24T05:06:46;17.10;99.90
23347;DHT22;36852;45.466;11.066;2023-04-24T05:09:15;17.20;99.90
23347;DHT22;36852;45.466;11.066;2023-04-24T05:11:48;17.20;99.90
23347;DHT22;36852;45.466;11.066;2023-04-24T05:14:16;17.30;99.90
23347;DHT22;36852;45.466;11.066;2023-04-24T05:16:45;17.30;99.90
23347;DHT22;36852;45.466;11.066;2023-04-24T05:19:13;17.30;99.90
23347;DHT22;36852;45.466;11.066;2023-04-24T05:21:44;17.30;99.90
23347;DHT22;36852;45.466;11.066;2023-04-24T05:24:11;17.30;99.90
23347;DHT22;36852;45.466;11.066;2023-04-24T05:26:47;17.30;99.90
23347;DHT22;36852;45.466;11.066;2023-04-24T05:29:20;17.30;99.90
23347;DHT22;36852;45.466;11.066;2023-04-24T05:31:49;17.30;99.90
23347;DHT22;36852;45.466;11.066;2023-04-24T05:34:16;17.30;99.90
23347;DHT22;36852;45.466;11.066;2023-04-24T05:36:46;17.30;99.90
23347;DHT22;36852;45.466;11.066;2023-04-24T05:39:14;17.30;99.90
23347;DHT22;36852;45.466;11.066;2023-04-24T05:41:42;17.20;99.90
23347;DHT22;36852;45.466;11.066;2023-04-24T05:44:10;17.20;99.90
23347;DHT22;36852;45.466;11.066;2023-04-24T05:46:38;17.20;99.90
23347;DHT22;36852;45.466;11.066;2023-04-24T05:49:05;17.20;99.90
23347;DHT22;36852;45.466;11.066;2023-04-24T05:51:34;17.20;99.90
23347;DHT22;36852;45.466;11.066;2023-04-24T05:54:02;17.20;99.90
23347;DHT22;36852;45.466;11.066;2023-04-24T05:56:30;17.20;99.90
23347;DHT22;36852;45.466;11.066;2023-04-24T05:59:00;17.30;99.90
23347;DHT22;36852;45.466;11.066;2023-04-24T06:01:28;17.20;99.90
23347;DHT22;36852;45.466;11.066;2023-04-24T06:03:59;17.20;99.90
23347;DHT22;36852;45.466;11.066;2023-04-24T06:06:26;17.30;99.90
23347;DHT22;36852;45.466;11.066;2023-04-24T06:08:54;17.30;99.90
23347;DHT22;36852;45.466;11.066;2023-04-24T06:11:24;17.30;99.90
23347;DHT22;36852;45.466;11.066;2023-04-24T06:13:52;17.30;99.90
23347;DHT22;36852;45.466;11.066;2023-04-24T06:16:22;17.30;99.90
23347;DHT22;36852;45.466;11.066;2023-04-24T06:18:51;17.30;99.90
23347;DHT22;36852;45.466;11.066;2023-04-24T06:21:19;17.30;99.90
23347;DHT22;36852;45.466;11.066;2023-04-24T06:23:47;17.30;99.90
23347;DHT22;36852;45.466;11.066;2023-04-24T06:26:15;17.30;99.90
23347;DHT22;36852;45.466;11.066;2023-04-24T06:28:42;17.30;99.90
23347;DHT22;36852;45.466;11.066;2023-04-24T06:31:10;17.30;99.90
23347;DHT22;36852;45.466;11.066;2023-04-24T06:33:38;17.40;99.90
23347;DHT22;36852;45.466;11.066;2023-04-24T06:36:06;17.30;99.90
23347;DHT22;36852;45.466;11.066;2023-04-24T06:38:34;17.30;99.90
23347;DHT22;36852;45.466;11.066;2023-04-24T06:41:02;17.30;99.90
23347;DHT22;36852;45.466;11.066;2023-04-24T06:43:31;17.40;99.90
23347;DHT22;36852;45.466;11.066;2023-04-24T06:46:00;17.40;99.90
23347;DHT22;36852;45.466;11.066;2023-04-24T06:48:27;17.40;99.90
23347;DHT22;36852;45.466;11.066;2023-04-24T06:50:55;17.50;99.90
23347;DHT22;36852;45.466;11.066;2023-04-24T06:53:23;17.50;99.90
23347;DHT22;36852;45.466;11.066;2023-04-24T06:55:50;17.50;99.90
23347;DHT22;36852;45.466;11.066;2023-04-24T06:58:18;17.50;99.90
23347;DHT22;36852;45.466;11.066;2023-04-24T07:00:46;17.60;99.90
23347;DHT22;36852;45.466;11.066;2023-04-24T07:03:14;17.60;99.90
23347;DHT22;36852;45.466;11.066;2023-04-24T07:05:43;17.70;99.90
23347;DHT22;36852;45.466;11.066;2023-04-24T07:08:10;17.70;99.90
23347;DHT22;36852;45.466;11.066;2023-04-24T07:10:38;17.80;99.90
23347;DHT22;36852;45.466;11.066;2023-04-24T07:13:09;17.80;99.90
23347;DHT22;36852;45.466;11.066;2023-04-24T07:15:38;17.90;99.90
23347;DHT22;36852;45.466;11.066;2023-04-24T07:18:07;17.90;99.90
23347;DHT22;36852;45.466;11.066;2023-04-24T07:20:35;18.00;99.90
23347;DHT22;36852;45.466;11.066;2023-04-24T07:23:02;18.10;99.90
23347;DHT22;36852;45.466;11.066;2023-04-24T07:25:30;18.10;99.90
23347;DHT22;36852;45.466;11.066;2023-04-24T07:27:59;18.10;99.90
23347;DHT22;36852;45.466;11.066;2023-04-24T07:30:26;18.20;99.90
23347;DHT22;36852;45.466;11.066;2023-04-24T07:32:56;18.20;99.90
23347;DHT22;36852;45.466;11.066;2023-04-24T07:35:24;18.20;99.90
23347;DHT22;36852;45.466;11.066;2023-04-24T07:37:55;18.30;99.90
23347;DHT22;36852;45.466;11.066;2023-04-24T07:40:23;18.30;99.90
23347;DHT22;36852;45.466;11.066;2023-04-24T07:42:51;18.40;99.90
23347;DHT22;36852;45.466;11.066;2023-04-24T07:45:19;18.40;99.90
23347;DHT22;36852;45.466;11.066;2023-04-24T07:47:47;18.40;99.90
23347;DHT22;36852;45.466;11.066;2023-04-24T07:50:15;18.40;99.90
23347;DHT22;36852;45.466;11.066;2023-04-24T07:52:42;18.40;99.90
23347;DHT22;36852;45.466;11.066;2023-04-24T07:55:10;18.40;99.90
23347;DHT22;36852;45.466;11.066;2023-04-24T07:57:38;18.40;99.90
23347;DHT22;36852;45.466;11.066;2023-04-24T08:00:07;18.30;99.90
23347;DHT22;36852;45.466;11.066;2023-04-24T08:02:39;18.30;99.90
23347;DHT22;36852;45.466;11.066;2023-04-24T08:05:07;18.20;99.90
23347;DHT22;36852;45.466;11.066;2023-04-24T08:07:35;18.20;99.90
23347;DHT22;36852;45.466;11.066;2023-04-24T08:10:03;18.10;99.90
23347;DHT22;36852;45.466;11.066;2023-04-24T08:12:31;17.90;99.90
23347;DHT22;36852;45.466;11.066;2023-04-24T08:15:00;17.70;99.90
23347;DHT22;36852;45.466;11.066;2023-04-24T08:17:27;17.60;99.90
23347;DHT22;36852;45.466;11.066;2023-04-24T08:19:55;17.60;99.90
23347;DHT22;36852;45.466;11.066;2023-04-24T08:22:25;17.60;99.90
23347;DHT22;36852;45.466;11.066;2023-04-24T08:24:58;17.60;99.90
23347;DHT22;36852;45.466;11.066;2023-04-24T08:27:29;17.70;99.90
23347;DHT22;36852;45.466;11.066;2023-04-24T08:29:57;17.60;99.90
23347;DHT22;36852;45.466;11.066;2023-04-24T08:32:26;17.60;99.90
23347;DHT22;36852;45.466;11.066;2023-04-24T08:34:57;17.60;99.90
23347;DHT22;36852;45.466;11.066;2023-04-24T08:37:26;17.70;99.90
23347;DHT22;36852;45.466;11.066;2023-04-24T08:39:55;17.70;99.90
23347;DHT22;36852;45.466;11.066;2023-04-24T08:42:23;17.90;99.90
23347;DHT22;36852;45.466;11.066;2023-04-24T08:44:51;18.00;99.90
23347;DHT22;36852;45.466;11.066;2023-04-24T08:47:20;18.00;99.90
23347;DHT22;36852;45.466;11.066;2023-04-24T08:49:48;18.10;99.90
23347;DHT22;36852;45.466;11.066;2023-04-24T08:52:18;18.20;99.90
23347;DHT22;36852;45.466;11.066;2023-04-24T08:54:47;18.20;99.90
23347;DHT22;36852;45.466;11.066;2023-04-24T08:57:17;18.30;99.90
23347;DHT22;36852;45.466;11.066;2023-04-24T08:59:45;18.30;99.90
23347;DHT22;36852;45.466;11.066;2023-04-24T09:02:14;18.40;99.90
23347;DHT22;36852;45.466;11.066;2023-04-24T09:04:44;18.40;99.90
23347;DHT22;36852;45.466;11.066;2023-04-24T09:07:16;18.30;99.90
23347;DHT22;36852;45.466;11.066;2023-04-24T09:09:47;18.30;99.90
23347;DHT22;36852;45.466;11.066;2023-04-24T09:12:16;18.20;99.90
23347;DHT22;36852;45.466;11.066;2023-04-24T09:14:45;18.10;99.90
23347;DHT22;36852;45.466;11.066;2023-04-24T09:17:13;18.00;99.90
23347;DHT22;36852;45.466;11.066;2023-04-24T09:19:41;18.00;99.90
23347;DHT22;36852;45.466;11.066;2023-04-24T09:22:09;18.00;99.90
23347;DHT22;36852;45.466;11.066;2023-04-24T09:24:38;18.00;99.90
23347;DHT22;36852;45.466;11.066;2023-04-24T09:27:06;18.10;99.90
23347;DHT22;36852;45.466;11.066;2023-04-24T09:29:36;18.10;99.90
23347;DHT22;36852;45.466;11.066;2023-04-24T09:32:18;18.10;99.90
23347;DHT22;36852;45.466;11.066;2023-04-24T09:34:48;18.10;99.90
23347;DHT22;36852;45.466;11.066;2023-04-24T09:37:28;18.00;99.90
23347;DHT22;36852;45.466;11.066;2023-04-24T09:40:17;17.90;99.90
23347;DHT22;36852;45.466;11.066;2023-04-24T09:42:51;17.90;99.90
23347;DHT22;36852;45.466;11.066;2023-04-24T09:45:16;17.90;99.90
23347;DHT22;36852;45.466;11.066;2023-04-24T09:47:43;18.00;99.90
23347;DHT22;36852;45.466;11.066;2023-04-24T09:50:16;18.10;99.90
23347;DHT22;36852;45.466;11.066;2023-04-24T09:53:06;18.20;99.90
23347;DHT22;36852;45.466;11.066;2023-04-24T09:55:39;18.40;99.90
23347;DHT22;36852;45.466;11.066;2023-04-24T09:58:08;18.60;99.90
23347;DHT22;36852;45.466;11.066;2023-04-24T10:00:36;18.70;99.90
23347;DHT22;36852;45.466;11.066;2023-04-24T10:03:05;18.80;99.90
23347;DHT22;36852;45.466;11.066;2023-04-24T10:05:36;18.80;99.90
23347;DHT22;36852;45.466;11.066;2023-04-24T10:08:07;18.90;99.90
23347;DHT22;36852;45.466;11.066;2023-04-24T10:10:42;18.80;99.90
23347;DHT22;36852;45.466;11.066;2023-04-24T10:13:10;18.80;99.90
23347;DHT22;36852;45.466;11.066;2023-04-24T10:15:40;18.90;99.90
23347;DHT22;36852;45.466;11.066;2023-04-24T10:18:09;18.90;99.90
23347;DHT22;36852;45.466;11.066;2023-04-24T10:20:39;18.90;99.90
23347;DHT22;36852;45.466;11.066;2023-04-24T10:23:08;18.90;99.90
23347;DHT22;36852;45.466;11.066;2023-04-24T10:25:36;18.80;99.90
23347;DHT22;36852;45.466;11.066;2023-04-24T10:28:04;18.80;99.90
23347;DHT22;36852;45.466;11.066;2023-04-24T10:30:35;18.70;99.90
23347;DHT22;36852;45.466;11.066;2023-04-24T10:33:05;18.70;99.90
23347;DHT22;36852;45.466;11.066;2023-04-24T10:35:39;18.80;99.90
23347;DHT22;36852;45.466;11.066;2023-04-24T10:38:16;18.80;99.90
23347;DHT22;36852;45.466;11.066;2023-04-24T10:40:48;18.80;99.90
23347;DHT22;36852;45.466;11.066;2023-04-24T10:43:17;18.90;99.90
23347;DHT22;36852;45.466;11.066;2023-04-24T10:46:04;18.90;99.90
23347;DHT22;36852;45.466;11.066;2023-04-24T10:48:32;18.90;99.90
23347;DHT22;36852;45.466;11.066;2023-04-24T10:51:01;19.00;99.90
23347;DHT22;36852;45.466;11.066;2023-04-24T10:53:30;19.10;99.90
23347;DHT22;36852;45.466;11.066;2023-04-24T11:01:26;19.00;99.90
23347;DHT22;36852;45.466;11.066;2023-04-24T11:04:00;19.00;99.90
23347;DHT22;36852;45.466;11.066;2023-04-24T11:09:26;19.00;99.90
23347;DHT22;36852;45.466;11.066;2023-04-24T11:12:05;19.10;99.90
23347;DHT22;36852;45.466;11.066;2023-04-24T11:17:35;19.30;99.90
23347;DHT22;36852;45.466;11.066;2023-04-24T11:20:07;19.50;99.90
23347;DHT22;36852;45.466;11.066;2023-04-24T11:22:39;19.50;99.90
23347;DHT22;36852;45.466;11.066;2023-04-24T11:25:08;19.60;99.90
23347;DHT22;36852;45.466;11.066;2023-04-24T11:27:42;19.70;99.90
23347;DHT22;36852;45.466;11.066;2023-04-24T11:30:10;19.70;99.90
23347;DHT22;36852;45.466;11.066;2023-04-24T11:32:41;19.70;99.90
23347;DHT22;36852;45.466;11.066;2023-04-24T11:37:47;19.60;99.90
23347;DHT22;36852;45.466;11.066;2023-04-24T11:40:19;19.60;99.90
23347;DHT22;36852;45.466;11.066;2023-04-24T11:42:48;19.70;99.90
23347;DHT22;36852;45.466;11.066;2023-04-24T11:45:21;19.70;99.90
23347;DHT22;36852;45.466;11.066;2023-04-24T11:47:48;19.60;99.70
23347;DHT22;36852;45.466;11.066;2023-04-24T11:50:18;19.50;99.90
23347;DHT22;36852;45.466;11.066;2023-04-24T11:52:49;19.60;99.90
23347;DHT22;36852;45.466;11.066;2023-04-24T11:57:50;19.70;99.90
23347;DHT22;36852;45.466;11.066;2023-04-24T12:00:21;19.70;99.80
23347;DHT22;36852;45.466;11.066;2023-04-24T12:02:49;19.80;99.20
23347;DHT22;36852;45.466;11.066;2023-04-24T12:05:26;19.80;98.00
23347;DHT22;36852;45.466;11.066;2023-04-24T12:07:57;19.90;98.20
23347;DHT22;36852;45.466;11.066;2023-04-24T12:10:26;20.00;98.30
23347;DHT22;36852;45.466;11.066;2023-04-24T12:12:57;20.10;97.60
23347;DHT22;36852;45.466;11.066;2023-04-24T12:15:25;20.10;97.10
23347;DHT22;36852;45.466;11.066;2023-04-24T12:17:54;20.10;96.90
23347;DHT22;36852;45.466;11.066;2023-04-24T12:20:31;20.10;96.00
23347;DHT22;36852;45.466;11.066;2023-04-24T12:23:00;20.00;94.30
23347;DHT22;36852;45.466;11.066;2023-04-24T12:25:31;20.00;95.70
23347;DHT22;36852;45.466;11.066;2023-04-24T12:28:11;19.90;94.50
23347;DHT22;36852;45.466;11.066;2023-04-24T12:30:46;19.90;94.50
23347;DHT22;36852;45.466;11.066;2023-04-24T12:33:19;20.00;95.50
23347;DHT22;36852;45.466;11.066;2023-04-24T12:35:53;20.00;95.80
23347;DHT22;36852;45.466;11.066;2023-04-24T12:38:25;20.00;95.10
23347;DHT22;36852;45.466;11.066;2023-04-24T12:43:33;20.20;95.80
23347;DHT22;36852;45.466;11.066;2023-04-24T12:46:01;20.20;94.00
23347;DHT22;36852;45.466;11.066;2023-04-24T12:48:29;20.30;94.90
23347;DHT22;36852;45.466;11.066;2023-04-24T12:50:58;20.40;93.50
23347;DHT22;36852;45.466;11.066;2023-04-24T12:53:28;20.50;93.50
23347;DHT22;36852;45.466;11.066;2023-04-24T12:55:59;20.60;93.90
23347;DHT22;36852;45.466;11.066;2023-04-24T12:58:27;20.70;93.90
23347;DHT22;36852;45.466;11.066;2023-04-24T13:00:56;20.90;93.80
23347;DHT22;36852;45.466;11.066;2023-04-24T13:03:24;21.10;93.80
23347;DHT22;36852;45.466;11.066;2023-04-24T13:05:52;21.30;93.10
23347;DHT22;36852;45.466;11.066;2023-04-24T13:08:20;21.40;92.80
23347;DHT22;36852;45.466;11.066;2023-04-24T13:10:49;21.50;89.60
23347;DHT22;36852;45.466;11.066;2023-04-24T13:13:17;21.60;87.90
23347;DHT22;36852;45.466;11.066;2023-04-24T13:15:45;21.70;87.80
23347;DHT22;36852;45.466;11.066;2023-04-24T13:18:13;21.80;86.60
23347;DHT22;36852;45.466;11.066;2023-04-24T13:20:40;21.90;87.00
23347;DHT22;36852;45.466;11.066;2023-04-24T13:23:09;22.00;87.90
23347;DHT22;36852;45.466;11.066;2023-04-24T13:25:38;22.20;87.60
23347;DHT22;36852;45.466;11.066;2023-04-24T13:28:06;22.50;90.00
23347;DHT22;36852;45.466;11.066;2023-04-24T13:30:33;22.80;84.50
23347;DHT22;36852;45.466;11.066;2023-04-24T13:33:01;23.00;77.30
23347;DHT22;36852;45.466;11.066;2023-04-24T13:35:28;23.10;77.50
23347;DHT22;36852;45.466;11.066;2023-04-24T13:37:57;23.30;74.90
23347;DHT22;36852;45.466;11.066;2023-04-24T13:40:26;23.30;73.90
23347;DHT22;36852;45.466;11.066;2023-04-24T13:42:54;23.50;76.70
23347;DHT22;36852;45.466;11.066;2023-04-24T13:45:22;23.80;70.80
23347;DHT22;36852;45.466;11.066;2023-04-24T13:47:52;24.10;74.90
23347;DHT22;36852;45.466;11.066;2023-04-24T13:50:21;24.70;74.60
23347;DHT22;36852;45.466;11.066;2023-04-24T13:52:49;24.90;70.60
23347;DHT22;36852;45.466;11.066;2023-04-24T13:55:17;25.10;69.00
23347;DHT22;36852;45.466;11.066;2023-04-24T13:57:45;25.00;70.80
23347;DHT22;36852;45.466;11.066;2023-04-24T14:00:13;25.10;71.30
23347;DHT22;36852;45.466;11.066;2023-04-24T14:02:41;25.40;72.40
23347;DHT22;36852;45.466;11.066;2023-04-24T14:05:09;25.30;72.80
23347;DHT22;36852;45.466;11.066;2023-04-24T14:10:19;25.00;71.80
23347;DHT22;36852;45.466;11.066;2023-04-24T14:12:47;24.90;72.20
23347;DHT22;36852;45.466;11.066;2023-04-24T14:15:15;24.90;72.40
23347;DHT22;36852;45.466;11.066;2023-04-24T14:17:43;24.70;69.50
23347;DHT22;36852;45.466;11.066;2023-04-24T14:20:12;24.80;70.90
23347;DHT22;36852;45.466;11.066;2023-04-24T14:22:40;24.80;70.80
23347;DHT22;36852;45.466;11.066;2023-04-24T14:25:08;25.10;70.70
23347;DHT22;36852;45.466;11.066;2023-04-24T14:27:36;25.50;69.80
23347;DHT22;36852;45.466;11.066;2023-04-24T14:30:05;25.90;69.00
23347;DHT22;36852;45.466;11.066;2023-04-24T14:32:33;25.80;64.30
23347;DHT22;36852;45.466;11.066;2023-04-24T14:35:03;25.50;63.60
23347;DHT22;36852;45.466;11.066;2023-04-24T14:37:31;25.50;67.20
23347;DHT22;36852;45.466;11.066;2023-04-24T14:39:59;25.70;66.90
23347;DHT22;36852;45.466;11.066;2023-04-24T14:42:28;25.90;64.50
23347;DHT22;36852;45.466;11.066;2023-04-24T14:44:55;26.10;64.40
23347;DHT22;36852;45.466;11.066;2023-04-24T14:47:23;26.20;62.70
23347;DHT22;36852;45.466;11.066;2023-04-24T14:49:51;26.20;62.70
23347;DHT22;36852;45.466;11.066;2023-04-24T14:52:19;25.80;63.40
23347;DHT22;36852;45.466;11.066;2023-04-24T14:54:47;25.40;65.30
23347;DHT22;36852;45.466;11.066;2023-04-24T14:57:15;25.10;65.50
23347;DHT22;36852;45.466;11.066;2023-04-24T14:59:43;24.80;67.50
23347;DHT22;36852;45.466;11.066;2023-04-24T15:02:11;24.40;65.70
23347;DHT22;36852;45.466;11.066;2023-04-24T15:04:41;23.90;67.60
23347;DHT22;36852;45.466;11.066;2023-04-24T15:07:09;23.60;70.00
23347;DHT22;36852;45.466;11.066;2023-04-24T15:09:36;23.30;72.20
23347;DHT22;36852;45.466;11.066;2023-04-24T15:12:05;23.10;72.40
23347;DHT22;36852;45.466;11.066;2023-04-24T15:14:32;23.00;74.20
23347;DHT22;36852;45.466;11.066;2023-04-24T15:17:03;22.80;77.30
23347;DHT22;36852;45.466;11.066;2023-04-24T15:19:31;22.70;78.90
23347;DHT22;36852;45.466;11.066;2023-04-24T15:21:59;22.60;78.50
23347;DHT22;36852;45.466;11.066;2023-04-24T15:24:27;22.50;79.30
23347;DHT22;36852;45.466;11.066;2023-04-24T15:26:55;22.30;81.10
23347;DHT22;36852;45.466;11.066;2023-04-24T15:29:25;22.20;82.70
23347;DHT22;36852;45.466;11.066;2023-04-24T15:31:54;22.10;82.40
23347;DHT22;36852;45.466;11.066;2023-04-24T15:34:22;22.00;83.40
23347;DHT22;36852;45.466;11.066;2023-04-24T15:36:50;21.90;84.50
23347;DHT22;36852;45.466;11.066;2023-04-24T15:39:17;21.80;85.30
23347;DHT22;36852;45.466;11.066;2023-04-24T15:41:45;21.80;85.80
23347;DHT22;36852;45.466;11.066;2023-04-24T15:44:14;21.90;86.70
23347;DHT22;36852;45.466;11.066;2023-04-24T15:46:41;21.90;87.20
23347;DHT22;36852;45.466;11.066;2023-04-24T15:49:17;21.90;87.50